Time,TemperatureF,DewpointF,PressureIn,WindDirection,WindDirectionDegrees,WindSpeedMPH,WindSpeedGustMPH,Humidity,HourlyPrecipIn,Conditions,Clouds,dailyrainin,SoftwareType,DateUTC
2013-03-09 00:03:00,34.8,33.0,30.13,East,82,3.0,3.0,93,0.00,,,0.00,Wunderground v.1.15,2013-03-09 06:03:00,
2013-03-09 00:09:00,34.8,33.0,30.13,East,80,3.0,3.0,93,0.00,,,0.00,Wunderground v.1.15,2013-03-09 06:09:00,
2013-03-09 00:15:00,34.7,32.9,30.13,ESE,121,0.0,4.0,93,0.00,,,0.00,Wunderground v.1.15,2013-03-09 06:15:00,
2013-03-09 00:20:00,34.7,32.9,30.13,NE,53,1.0,4.0,93,0.00,,,0.00,Wunderground v.1.15,2013-03-09 06:20:00,
2013-03-09 00:25:00,34.8,33.0,30.12,ENE,70,2.0,2.0,93,0.00,,,0.00,Wunderground v.1.15,2013-03-09 06:25:00,
2013-03-09 00:31:00,34.8,33.0,30.12,NNE,26,0.0,3.0,93,0.00,,,0.00,Wunderground v.1.15,2013-03-09 06:31:00,
2013-03-09 00:37:00,34.8,33.0,30.11,East,101,4.0,4.0,93,0.00,,,0.00,Wunderground v.1.15,2013-03-09 06:37:00,
2013-03-09 00:43:00,34.8,33.0,30.11,ESE,112,0.0,2.0,93,0.00,,,0.00,Wunderground v.1.15,2013-03-09 06:43:00,
2013-03-09 00:49:00,34.9,33.1,30.10,East,82,1.0,3.0,93,0.00,,,0.00,Wunderground v.1.15,2013-03-09 06:49:00,
2013-03-09 00:54:00,34.9,33.1,30.10,ESE,104,0.0,2.0,93,0.00,,,0.00,Wunderground v.1.15,2013-03-09 06:54:00,
2013-03-09 01:00:00,35.0,33.2,30.10,East,93,2.0,2.0,93,0.00,,,0.00,Wunderground v.1.15,2013-03-09 07:00:00,
2013-03-09 01:06:00,35.0,33.2,30.10,ESE,117,5.0,5.0,93,0.00,,,0.00,Wunderground v.1.15,2013-03-09 07:06:00,
2013-03-09 01:12:00,35.0,33.2,30.09,ENE,74,1.0,2.0,93,0.00,,,0.00,Wunderground v.1.15,2013-03-09 07:12:00,
2013-03-09 01:18:00,35.1,33.3,30.09,East,96,1.0,3.0,93,0.00,,,0.00,Wunderground v.1.15,2013-03-09 07:18:00,
2013-03-09 01:23:00,35.1,33.3,30.10,ESE,109,0.0,2.0,93,0.00,,,0.00,Wunderground v.1.15,2013-03-09 07:23:00,
2013-03-09 01:29:00,35.1,33.3,30.10,East,89,2.0,3.0,93,0.00,,,0.00,Wunderground v.1.15,2013-03-09 07:29:00,
2013-03-09 01:34:00,35.2,33.4,30.10,ENE,61,1.0,5.0,93,0.00,,,0.00,Wunderground v.1.15,2013-03-09 07:34:00,
2013-03-09 01:40:00,35.2,33.4,30.09,SE,129,2.0,5.0,93,0.00,,,0.00,Wunderground v.1.15,2013-03-09 07:40:00,
2013-03-09 01:45:00,35.2,33.4,30.09,SE,143,2.0,4.0,93,0.00,,,0.00,Wunderground v.1.15,2013-03-09 07:45:00,
2013-03-09 01:52:00,35.2,33.4,30.09,ESE,120,1.0,3.0,93,0.00,,,0.00,Wunderground v.1.15,2013-03-09 07:52:00,
2013-03-09 01:58:00,35.3,33.5,30.08,ENE,71,1.0,4.0,93,0.00,,,0.00,Wunderground v.1.15,2013-03-09 07:58:00,
2013-03-09 02:03:00,35.3,33.5,30.08,SE,125,1.0,2.0,93,0.00,,,0.00,Wunderground v.1.15,2013-03-09 08:03:00,
2013-03-09 02:08:00,35.3,33.5,30.08,ENE,76,2.0,8.0,93,0.00,,,0.00,Wunderground v.1.15,2013-03-09 08:08:00,
2013-03-09 02:14:00,35.4,33.3,30.07,East,98,2.0,3.0,92,0.00,,,0.00,Wunderground v.1.15,2013-03-09 08:14:00,
2013-03-09 02:19:00,35.5,33.4,30.07,SE,127,8.0,9.0,92,0.00,,,0.00,Wunderground v.1.15,2013-03-09 08:19:00,
2013-03-09 02:24:00,35.5,33.4,30.07,East,91,2.0,8.0,92,0.00,,,0.01,Wunderground v.1.15,2013-03-09 08:24:00,
2013-03-09 02:29:00,35.6,33.5,30.06,ESE,103,4.0,14.0,92,0.00,,,0.01,Wunderground v.1.15,2013-03-09 08:29:00,
2013-03-09 02:34:00,35.7,33.6,30.06,SE,134,2.0,5.0,92,0.00,,,0.01,Wunderground v.1.15,2013-03-09 08:34:00,
2013-03-09 02:39:00,35.7,33.6,30.06,SE,126,2.0,11.0,92,0.00,,,0.01,Wunderground v.1.15,2013-03-09 08:39:00,
2013-03-09 02:44:00,35.7,33.3,30.05,East,98,4.0,8.0,91,0.00,,,0.01,Wunderground v.1.15,2013-03-09 08:44:00,
2013-03-09 02:50:00,35.8,33.4,30.05,East,100,7.0,14.0,91,0.00,,,0.01,Wunderground v.1.15,2013-03-09 08:50:00,
2013-03-09 02:55:00,35.8,33.4,30.05,SE,138,4.0,8.0,91,0.00,,,0.01,Wunderground v.1.15,2013-03-09 08:55:00,
2013-03-09 03:00:00,35.8,33.4,30.05,ESE,109,4.0,5.0,91,0.00,,,0.01,Wunderground v.1.15,2013-03-09 09:00:00,
2013-03-09 03:05:00,35.7,33.3,30.05,SE,130,5.0,7.0,91,0.00,,,0.01,Wunderground v.1.15,2013-03-09 09:05:00,
2013-03-09 03:10:00,35.7,33.3,30.05,SE,140,7.0,7.0,91,0.00,,,0.01,Wunderground v.1.15,2013-03-09 09:10:00,
2013-03-09 03:15:00,35.6,33.2,30.05,ESE,123,6.0,11.0,91,0.00,,,0.01,Wunderground v.1.15,2013-03-09 09:15:00,
2013-03-09 03:20:00,35.7,33.3,30.05,SE,146,7.0,13.0,91,0.00,,,0.01,Wunderground v.1.15,2013-03-09 09:20:00,
2013-03-09 03:25:00,35.7,33.3,30.04,SE,138,4.0,12.0,91,0.00,,,0.01,Wunderground v.1.15,2013-03-09 09:25:00,
2013-03-09 03:30:00,35.9,33.5,30.04,SE,128,8.0,13.0,91,0.00,,,0.01,Wunderground v.1.15,2013-03-09 09:30:00,
2013-03-09 03:35:00,35.9,33.5,30.03,SE,146,6.0,9.0,91,0.00,,,0.01,Wunderground v.1.15,2013-03-09 09:35:00,
2013-03-09 03:40:00,35.9,33.5,30.03,SE,138,6.0,13.0,91,0.00,,,0.01,Wunderground v.1.15,2013-03-09 09:40:00,
2013-03-09 03:45:00,35.9,33.5,30.03,SE,134,11.0,12.0,91,0.00,,,0.02,Wunderground v.1.15,2013-03-09 09:45:00,
2013-03-09 03:50:00,35.8,33.4,30.03,SSE,155,8.0,13.0,91,0.00,,,0.02,Wunderground v.1.15,2013-03-09 09:50:00,
2013-03-09 03:55:00,35.6,33.2,30.03,SE,140,9.0,13.0,91,0.00,,,0.02,Wunderground v.1.15,2013-03-09 09:55:00,
2013-03-09 04:00:00,35.5,33.4,30.03,SE,142,9.0,10.0,92,0.00,,,0.02,Wunderground v.1.15,2013-03-09 10:00:00,
2013-03-09 04:05:00,35.5,33.4,30.03,SSE,150,11.0,11.0,92,0.00,,,0.02,Wunderground v.1.15,2013-03-09 10:05:00,
2013-03-09 04:10:00,35.4,33.3,30.05,SSE,156,8.0,9.0,92,0.00,,,0.02,Wunderground v.1.15,2013-03-09 10:10:00,
2013-03-09 04:15:00,35.3,33.2,30.05,SSE,168,7.0,11.0,92,0.00,,,0.02,Wunderground v.1.15,2013-03-09 10:15:00,
2013-03-09 04:20:00,35.3,33.5,30.05,SE,146,8.0,12.0,93,0.24,,,0.04,Wunderground v.1.15,2013-03-09 10:20:00,
2013-03-09 04:25:00,35.2,33.4,30.05,SSE,147,6.0,8.0,93,0.21,,,0.05,Wunderground v.1.15,2013-03-09 10:25:00,
2013-03-09 04:30:00,35.1,33.3,30.05,SSE,153,6.0,8.0,93,0.14,,,0.07,Wunderground v.1.15,2013-03-09 10:30:00,
2013-03-09 04:35:00,35.0,33.2,30.05,SSE,150,5.0,8.0,93,0.10,,,0.07,Wunderground v.1.15,2013-03-09 10:35:00,
2013-03-09 04:40:00,35.0,33.4,30.06,SSE,168,7.0,12.0,94,0.10,,,0.08,Wunderground v.1.15,2013-03-09 10:40:00,
2013-03-09 04:45:00,35.2,33.6,30.05,SSE,161,9.0,11.0,94,0.07,,,0.09,Wunderground v.1.15,2013-03-09 10:45:00,
2013-03-09 04:50:00,35.2,33.6,30.05,SSE,152,6.0,11.0,94,0.11,,,0.10,Wunderground v.1.15,2013-03-09 10:50:00,
2013-03-09 04:55:00,35.1,33.5,30.04,SSE,147,7.0,9.0,94,0.15,,,0.11,Wunderground v.1.15,2013-03-09 10:55:00,
2013-03-09 05:00:00,35.0,33.7,30.04,SE,141,5.0,8.0,95,0.15,,,0.12,Wunderground v.1.15,2013-03-09 11:00:00,
2013-03-09 05:05:00,35.1,33.8,30.03,SE,138,6.0,10.0,95,0.18,,,0.14,Wunderground v.1.15,2013-03-09 11:05:00,
2013-03-09 05:11:00,35.1,33.8,30.02,SE,140,11.0,11.0,95,0.12,,,0.15,Wunderground v.1.15,2013-03-09 11:11:00,
2013-03-09 05:16:00,35.2,33.9,30.03,SE,144,4.0,12.0,95,0.10,,,0.15,Wunderground v.1.15,2013-03-09 11:16:00,
2013-03-09 05:21:00,35.2,33.9,30.03,SE,138,9.0,12.0,95,0.09,,,0.16,Wunderground v.1.15,2013-03-09 11:21:00,
2013-03-09 05:26:00,35.2,33.9,30.03,SSE,149,8.0,12.0,95,0.30,,,0.19,Wunderground v.1.15,2013-03-09 11:26:00,
2013-03-09 05:32:00,35.2,33.9,30.02,SE,140,9.0,9.0,95,0.15,,,0.21,Wunderground v.1.15,2013-03-09 11:32:00,
2013-03-09 05:37:00,35.1,33.8,30.02,SE,142,9.0,10.0,95,0.13,,,0.22,Wunderground v.1.15,2013-03-09 11:37:00,
2013-03-09 05:44:00,35.1,33.8,30.02,SE,125,4.0,7.0,95,0.10,,,0.23,Wunderground v.1.15,2013-03-09 11:44:00,
2013-03-09 05:49:00,35.0,33.7,30.02,SE,131,2.0,9.0,95,0.06,,,0.24,Wunderground v.1.15,2013-03-09 11:49:00,
2013-03-09 05:54:00,35.0,34.0,30.02,SE,136,8.0,8.0,96,0.09,,,0.25,Wunderground v.1.15,2013-03-09 11:54:00,
2013-03-09 05:59:00,35.0,34.0,30.02,SE,132,6.0,9.0,96,0.16,,,0.26,Wunderground v.1.15,2013-03-09 11:59:00,
2013-03-09 06:04:00,35.0,34.0,30.01,SE,140,2.0,2.0,96,1.55,,,0.28,Wunderground v.1.15,2013-03-09 12:04:00,
2013-03-09 06:09:00,35.0,34.0,30.01,SSE,151,4.0,8.0,96,0.28,,,0.31,Wunderground v.1.15,2013-03-09 12:09:00,
2013-03-09 06:14:00,35.0,34.0,30.00,SE,140,5.0,7.0,96,0.44,,,0.35,Wunderground v.1.15,2013-03-09 12:14:00,
2013-03-09 06:19:00,35.0,34.0,30.00,East,88,5.0,10.0,96,0.18,,,0.36,Wunderground v.1.15,2013-03-09 12:19:00,
2013-03-09 06:24:00,35.0,34.0,30.00,SE,132,2.0,5.0,96,0.07,,,0.36,Wunderground v.1.15,2013-03-09 12:24:00,
2013-03-09 06:29:00,35.0,34.0,30.00,SE,140,7.0,8.0,96,0.05,,,0.36,Wunderground v.1.15,2013-03-09 12:29:00,
2013-03-09 06:34:00,35.0,34.0,29.99,SE,146,2.0,8.0,96,0.00,,,0.36,Wunderground v.1.15,2013-03-09 12:34:00,
2013-03-09 06:39:00,35.0,34.0,29.99,ESE,123,5.0,9.0,96,0.00,,,0.37,Wunderground v.1.15,2013-03-09 12:39:00,
2013-03-09 06:44:00,35.1,34.1,29.99,ESE,111,6.0,7.0,96,0.00,,,0.37,Wunderground v.1.15,2013-03-09 12:44:00,
2013-03-09 06:49:00,35.1,34.1,29.99,SE,128,6.0,8.0,96,0.00,,,0.37,Wunderground v.1.15,2013-03-09 12:49:00,
2013-03-09 06:54:00,35.2,34.2,30.00,SSE,149,6.0,9.0,96,0.00,,,0.37,Wunderground v.1.15,2013-03-09 12:54:00,
2013-03-09 06:59:00,35.3,34.3,30.00,SE,140,7.0,9.0,96,0.00,,,0.37,Wunderground v.1.15,2013-03-09 12:59:00,
2013-03-09 07:04:00,35.3,34.3,29.99,SE,143,6.0,9.0,96,0.00,,,0.37,Wunderground v.1.15,2013-03-09 13:04:00,
2013-03-09 07:09:00,35.3,34.5,29.99,SSE,147,7.0,11.0,97,0.00,,,0.37,Wunderground v.1.15,2013-03-09 13:09:00,
2013-03-09 07:15:00,35.3,34.5,29.99,SSE,155,7.0,11.0,97,0.00,,,0.37,Wunderground v.1.15,2013-03-09 13:15:00,
2013-03-09 07:20:00,35.3,34.5,29.99,SE,143,8.0,13.0,97,0.00,,,0.37,Wunderground v.1.15,2013-03-09 13:20:00,
2013-03-09 07:25:00,35.3,34.5,29.99,SE,142,8.0,11.0,97,0.00,,,0.37,Wunderground v.1.15,2013-03-09 13:25:00,
2013-03-09 07:30:00,35.2,34.4,29.99,SE,144,8.0,11.0,97,0.00,,,0.38,Wunderground v.1.15,2013-03-09 13:30:00,
2013-03-09 07:35:00,35.2,34.2,29.98,ESE,121,9.0,11.0,96,0.00,,,0.38,Wunderground v.1.15,2013-03-09 13:35:00,
2013-03-09 07:40:00,35.2,34.2,29.98,SSE,148,10.0,13.0,96,0.00,,,0.38,Wunderground v.1.15,2013-03-09 13:40:00,
2013-03-09 07:45:00,35.2,34.4,29.98,SSE,148,10.0,11.0,97,0.00,,,0.38,Wunderground v.1.15,2013-03-09 13:45:00,
2013-03-09 07:50:00,35.2,34.4,29.98,SE,135,10.0,11.0,97,0.00,,,0.38,Wunderground v.1.15,2013-03-09 13:50:00,
2013-03-09 07:55:00,35.2,34.2,29.98,SE,141,10.0,10.0,96,0.00,,,0.38,Wunderground v.1.15,2013-03-09 13:55:00,
2013-03-09 08:00:00,35.1,34.1,29.98,SSE,150,9.0,10.0,96,0.00,,,0.38,Wunderground v.1.15,2013-03-09 14:00:00,
2013-03-09 08:05:00,35.0,34.0,29.97,SSE,153,9.0,12.0,96,0.00,,,0.38,Wunderground v.1.15,2013-03-09 14:05:00,
2013-03-09 08:10:00,35.0,34.2,29.96,SE,140,9.0,10.0,97,0.00,,,0.38,Wunderground v.1.15,2013-03-09 14:10:00,
2013-03-09 08:15:00,35.1,34.3,29.95,SSE,150,8.0,12.0,97,0.00,,,0.38,Wunderground v.1.15,2013-03-09 14:15:00,
2013-03-09 08:20:00,35.2,34.4,29.95,SE,137,10.0,13.0,97,0.00,,,0.38,Wunderground v.1.15,2013-03-09 14:20:00,
2013-03-09 08:25:00,35.3,34.5,29.95,SE,136,10.0,13.0,97,0.00,,,0.38,Wunderground v.1.15,2013-03-09 14:25:00,
2013-03-09 08:30:00,35.3,34.5,29.95,SE,145,9.0,14.0,97,0.00,,,0.38,Wunderground v.1.15,2013-03-09 14:30:00,
2013-03-09 08:36:00,35.3,34.5,29.95,SE,135,9.0,13.0,97,0.00,,,0.38,Wunderground v.1.15,2013-03-09 14:36:00,
2013-03-09 08:41:00,35.2,34.4,29.94,SE,143,9.0,13.0,97,0.00,,,0.38,Wunderground v.1.15,2013-03-09 14:41:00,
2013-03-09 08:46:00,35.2,34.4,29.95,SE,137,10.0,13.0,97,0.00,,,0.38,Wunderground v.1.15,2013-03-09 14:46:00,
2013-03-09 08:52:00,35.1,34.3,29.95,SSE,157,8.0,9.0,97,0.00,,,0.38,Wunderground v.1.15,2013-03-09 14:52:00,
2013-03-09 08:57:00,35.1,34.3,29.94,SE,137,12.0,12.0,97,0.00,,,0.38,Wunderground v.1.15,2013-03-09 14:57:00,
2013-03-09 09:03:00,35.1,34.3,29.94,SSE,159,8.0,8.0,97,0.00,,,0.38,Wunderground v.1.15,2013-03-09 15:03:00,
2013-03-09 09:08:00,35.1,34.3,29.94,SE,145,8.0,13.0,97,0.00,,,0.38,Wunderground v.1.15,2013-03-09 15:08:00,
2013-03-09 09:13:00,35.2,34.4,29.93,SE,144,9.0,10.0,97,0.00,,,0.38,Wunderground v.1.15,2013-03-09 15:13:00,
2013-03-09 09:18:00,35.2,34.4,29.93,SSE,153,11.0,11.0,97,0.00,,,0.38,Wunderground v.1.15,2013-03-09 15:18:00,
2013-03-09 09:23:00,35.1,34.3,29.93,SE,145,9.0,9.0,97,0.00,,,0.38,Wunderground v.1.15,2013-03-09 15:23:00,
2013-03-09 09:28:00,35.1,34.3,29.93,SSE,158,8.0,11.0,97,0.00,,,0.38,Wunderground v.1.15,2013-03-09 15:28:00,
2013-03-09 09:33:00,35.2,34.4,29.93,SSE,157,10.0,10.0,97,0.00,,,0.38,Wunderground v.1.15,2013-03-09 15:33:00,
2013-03-09 09:38:00,35.2,34.4,29.92,SE,132,9.0,11.0,97,0.00,,,0.38,Wunderground v.1.15,2013-03-09 15:38:00,
2013-03-09 09:43:00,35.3,34.5,29.92,SSE,154,7.0,10.0,97,0.00,,,0.38,Wunderground v.1.15,2013-03-09 15:43:00,
2013-03-09 09:48:00,35.3,34.5,29.92,SE,135,8.0,11.0,97,0.00,,,0.38,Wunderground v.1.15,2013-03-09 15:48:00,
2013-03-09 09:53:00,35.3,34.5,29.91,SSE,149,9.0,9.0,97,0.00,,,0.38,Wunderground v.1.15,2013-03-09 15:53:00,
2013-03-09 09:59:00,35.3,34.5,29.92,SSE,148,8.0,11.0,97,0.00,,,0.38,Wunderground v.1.15,2013-03-09 15:59:00,
2013-03-09 10:04:00,35.3,34.5,29.92,SSE,150,7.0,9.0,97,0.00,,,0.38,Wunderground v.1.15,2013-03-09 16:04:00,
2013-03-09 10:09:00,35.3,34.5,29.91,SE,146,8.0,8.0,97,0.00,,,0.38,Wunderground v.1.15,2013-03-09 16:09:00,
2013-03-09 10:14:00,35.3,34.5,29.91,SSE,150,8.0,11.0,97,0.00,,,0.38,Wunderground v.1.15,2013-03-09 16:14:00,
2013-03-09 10:19:00,35.4,34.6,29.91,SSE,155,9.0,11.0,97,0.00,,,0.38,Wunderground v.1.15,2013-03-09 16:19:00,
2013-03-09 10:24:00,35.4,34.6,29.91,SSE,148,9.0,9.0,97,0.00,,,0.38,Wunderground v.1.15,2013-03-09 16:24:00,
2013-03-09 10:29:00,35.5,34.7,29.90,SSE,153,8.0,11.0,97,0.00,,,0.38,Wunderground v.1.15,2013-03-09 16:29:00,
2013-03-09 10:34:00,35.5,34.7,29.90,SE,141,6.0,11.0,97,0.00,,,0.38,Wunderground v.1.15,2013-03-09 16:34:00,
2013-03-09 10:39:00,35.6,34.8,29.91,SSE,159,6.0,11.0,97,0.00,,,0.38,Wunderground v.1.15,2013-03-09 16:39:00,
2013-03-09 10:44:00,35.6,34.8,29.90,SSE,154,8.0,9.0,97,0.00,,,0.38,Wunderground v.1.15,2013-03-09 16:44:00,
2013-03-09 10:49:00,35.6,34.8,29.90,SE,146,9.0,11.0,97,0.00,,,0.38,Wunderground v.1.15,2013-03-09 16:49:00,
2013-03-09 10:54:00,35.7,34.9,29.90,SSE,149,10.0,10.0,97,0.00,,,0.38,Wunderground v.1.15,2013-03-09 16:54:00,
2013-03-09 10:59:00,35.9,35.1,29.89,SE,143,8.0,13.0,97,0.00,,,0.39,Wunderground v.1.15,2013-03-09 16:59:00,
2013-03-09 11:04:00,36.1,35.3,29.89,SE,139,8.0,11.0,97,0.00,,,0.39,Wunderground v.1.15,2013-03-09 17:04:00,
2013-03-09 11:09:00,36.1,35.3,29.89,SSE,155,7.0,8.0,97,0.00,,,0.39,Wunderground v.1.15,2013-03-09 17:09:00,
2013-03-09 11:14:00,36.2,35.4,29.89,SE,129,9.0,11.0,97,0.00,,,0.39,Wunderground v.1.15,2013-03-09 17:14:00,
2013-03-09 11:19:00,36.1,35.3,29.89,SSE,149,7.0,11.0,97,0.00,,,0.39,Wunderground v.1.15,2013-03-09 17:19:00,
2013-03-09 11:24:00,36.1,35.3,29.88,SSE,153,7.0,10.0,97,0.00,,,0.40,Wunderground v.1.15,2013-03-09 17:24:00,
2013-03-09 11:29:00,36.1,35.3,29.88,SE,144,11.0,11.0,97,0.00,,,0.40,Wunderground v.1.15,2013-03-09 17:29:00,
2013-03-09 11:34:00,36.1,35.3,29.87,SSE,153,9.0,13.0,97,0.00,,,0.40,Wunderground v.1.15,2013-03-09 17:34:00,
2013-03-09 11:39:00,36.1,35.3,29.87,SE,140,7.0,13.0,97,0.00,,,0.41,Wunderground v.1.15,2013-03-09 17:39:00,
2013-03-09 11:44:00,36.1,35.3,29.87,SE,145,9.0,11.0,97,0.14,,,0.42,Wunderground v.1.15,2013-03-09 17:44:00,
2013-03-09 11:49:00,35.9,35.1,29.87,SE,142,9.0,12.0,97,0.10,,,0.42,Wunderground v.1.15,2013-03-09 17:49:00,
2013-03-09 11:54:00,35.8,35.0,29.87,SSE,154,8.0,11.0,97,0.06,,,0.43,Wunderground v.1.15,2013-03-09 17:54:00,
2013-03-09 11:59:00,35.7,34.9,29.88,SE,142,8.0,12.0,97,0.11,,,0.44,Wunderground v.1.15,2013-03-09 17:59:00,
2013-03-09 12:04:00,35.7,34.9,29.87,SSE,148,9.0,9.0,97,0.13,,,0.45,Wunderground v.1.15,2013-03-09 18:04:00,
2013-03-09 12:09:00,35.7,34.9,29.87,SSE,157,8.0,11.0,97,0.10,,,0.45,Wunderground v.1.15,2013-03-09 18:09:00,
2013-03-09 12:14:00,35.7,34.9,29.87,South,169,8.0,10.0,97,0.06,,,0.46,Wunderground v.1.15,2013-03-09 18:14:00,
2013-03-09 12:19:00,35.7,34.9,29.86,SSE,149,10.0,18.0,97,0.14,,,0.47,Wunderground v.1.15,2013-03-09 18:19:00,
2013-03-09 12:24:00,35.7,34.9,29.85,SSE,152,8.0,11.0,97,0.14,,,0.48,Wunderground v.1.15,2013-03-09 18:24:00,
2013-03-09 12:29:00,35.7,34.9,29.85,SSE,159,7.0,11.0,97,0.24,,,0.50,Wunderground v.1.15,2013-03-09 18:29:00,
2013-03-09 12:34:00,35.6,34.8,29.85,SE,140,7.0,8.0,97,0.31,,,0.52,Wunderground v.1.15,2013-03-09 18:34:00,
2013-03-09 12:39:00,35.6,34.8,29.85,SSE,148,7.0,10.0,97,0.12,,,0.53,Wunderground v.1.15,2013-03-09 18:39:00,
2013-03-09 12:44:00,35.6,34.8,29.84,SSE,148,8.0,9.0,97,0.20,,,0.55,Wunderground v.1.15,2013-03-09 18:44:00,
2013-03-09 12:49:00,35.7,34.9,29.84,SSE,149,8.0,11.0,97,0.19,,,0.57,Wunderground v.1.15,2013-03-09 18:49:00,
2013-03-09 12:54:00,35.7,34.9,29.83,SE,146,8.0,8.0,97,0.17,,,0.58,Wunderground v.1.15,2013-03-09 18:54:00,
2013-03-09 12:59:00,35.7,34.9,29.83,SSE,150,8.0,10.0,97,0.16,,,0.60,Wunderground v.1.15,2013-03-09 18:59:00,
2013-03-09 13:04:00,35.8,35.0,29.83,SSE,155,9.0,9.0,97,0.13,,,0.61,Wunderground v.1.15,2013-03-09 19:04:00,
2013-03-09 13:09:00,35.9,35.1,29.82,SSE,150,7.0,10.0,97,0.13,,,0.62,Wunderground v.1.15,2013-03-09 19:09:00,
2013-03-09 13:14:00,35.9,35.1,29.82,SSE,148,8.0,10.0,97,0.31,,,0.64,Wunderground v.1.15,2013-03-09 19:14:00,
2013-03-09 13:19:00,35.9,35.1,29.81,SE,146,7.0,10.0,97,0.13,,,0.65,Wunderground v.1.15,2013-03-09 19:19:00,
2013-03-09 13:24:00,35.9,35.1,29.81,SSE,151,7.0,10.0,97,0.17,,,0.66,Wunderground v.1.15,2013-03-09 19:24:00,
2013-03-09 13:29:00,35.8,35.0,29.81,SSE,165,9.0,10.0,97,0.10,,,0.67,Wunderground v.1.15,2013-03-09 19:29:00,
2013-03-09 13:35:00,35.9,35.1,29.80,SSE,149,8.0,9.0,97,0.13,,,0.68,Wunderground v.1.15,2013-03-09 19:35:00,
2013-03-09 13:40:00,36.0,35.2,29.80,SE,138,7.0,11.0,97,0.24,,,0.70,Wunderground v.1.15,2013-03-09 19:40:00,
2013-03-09 13:45:00,36.1,35.3,29.80,SSE,151,7.0,10.0,97,0.11,,,0.71,Wunderground v.1.15,2013-03-09 19:45:00,
2013-03-09 13:50:00,36.0,35.2,29.79,SE,142,8.0,10.0,97,0.19,,,0.72,Wunderground v.1.15,2013-03-09 19:50:00,
2013-03-09 13:55:00,36.0,35.2,29.79,SE,140,9.0,9.0,97,0.26,,,0.74,Wunderground v.1.15,2013-03-09 19:55:00,
2013-03-09 14:00:00,36.1,35.3,29.78,SE,145,7.0,8.0,97,0.10,,,0.75,Wunderground v.1.15,2013-03-09 20:00:00,
2013-03-09 14:05:00,36.2,35.4,29.77,SSE,163,8.0,9.0,97,0.10,,,0.75,Wunderground v.1.15,2013-03-09 20:05:00,
2013-03-09 14:10:00,36.3,35.5,29.78,SSE,167,7.0,9.0,97,0.06,,,0.76,Wunderground v.1.15,2013-03-09 20:10:00,
2013-03-09 14:15:00,36.3,35.5,29.78,SSE,157,7.0,9.0,97,0.06,,,0.76,Wunderground v.1.15,2013-03-09 20:15:00,
2013-03-09 14:20:00,36.2,35.4,29.78,SE,145,5.0,10.0,97,0.05,,,0.76,Wunderground v.1.15,2013-03-09 20:20:00,
2013-03-09 14:25:00,36.1,35.3,29.78,SSE,163,7.0,9.0,97,0.04,,,0.76,Wunderground v.1.15,2013-03-09 20:25:00,
2013-03-09 14:30:00,36.1,35.3,29.78,SE,144,6.0,10.0,97,0.00,,,0.76,Wunderground v.1.15,2013-03-09 20:30:00,
2013-03-09 14:35:00,36.0,35.2,29.78,SE,146,6.0,10.0,97,0.00,,,0.76,Wunderground v.1.15,2013-03-09 20:35:00,
2013-03-09 14:40:00,35.9,35.1,29.78,SSE,150,8.0,10.0,97,0.00,,,0.76,Wunderground v.1.15,2013-03-09 20:40:00,
2013-03-09 14:45:00,35.9,35.1,29.76,SSE,150,5.0,8.0,97,0.00,,,0.76,Wunderground v.1.15,2013-03-09 20:45:00,
2013-03-09 14:50:00,36.0,35.2,29.75,SE,143,4.0,11.0,97,0.00,,,0.77,Wunderground v.1.15,2013-03-09 20:50:00,
2013-03-09 14:55:00,36.1,35.3,29.75,SE,140,4.0,11.0,97,0.15,,,0.79,Wunderground v.1.15,2013-03-09 20:55:00,
2013-03-09 15:00:00,36.2,35.4,29.75,SSE,150,7.0,7.0,97,0.23,,,0.80,Wunderground v.1.15,2013-03-09 21:00:00,
2013-03-09 15:05:00,36.2,35.4,29.76,SE,136,9.0,12.0,97,0.19,,,0.82,Wunderground v.1.15,2013-03-09 21:05:00,
2013-03-09 15:10:00,36.1,35.3,29.76,SE,142,9.0,10.0,97,0.14,,,0.83,Wunderground v.1.15,2013-03-09 21:10:00,
2013-03-09 15:15:00,36.0,35.2,29.76,SE,141,8.0,12.0,97,0.16,,,0.84,Wunderground v.1.15,2013-03-09 21:15:00,
2013-03-09 15:20:00,36.0,35.2,29.75,SE,137,6.0,12.0,97,0.17,,,0.86,Wunderground v.1.15,2013-03-09 21:20:00,
2013-03-09 15:25:00,36.2,35.4,29.74,SE,134,6.0,8.0,97,0.09,,,0.86,Wunderground v.1.15,2013-03-09 21:25:00,
2013-03-09 15:30:00,36.2,35.4,29.74,SE,138,5.0,10.0,97,0.17,,,0.88,Wunderground v.1.15,2013-03-09 21:30:00,
2013-03-09 15:35:00,36.2,35.4,29.74,SSE,159,7.0,10.0,97,0.11,,,0.89,Wunderground v.1.15,2013-03-09 21:35:00,
2013-03-09 15:40:00,36.2,35.4,29.74,SE,144,8.0,10.0,97,0.18,,,0.90,Wunderground v.1.15,2013-03-09 21:40:00,
2013-03-09 15:45:00,36.2,35.4,29.75,SSE,155,6.0,9.0,97,0.09,,,0.91,Wunderground v.1.15,2013-03-09 21:45:00,
2013-03-09 15:50:00,36.1,35.3,29.76,SSE,153,6.0,9.0,97,0.19,,,0.92,Wunderground v.1.15,2013-03-09 21:50:00,
2013-03-09 15:55:00,36.0,35.2,29.76,SSE,160,5.0,10.0,97,0.08,,,0.92,Wunderground v.1.15,2013-03-09 21:55:00,
2013-03-09 16:00:00,36.0,35.2,29.77,SSE,159,5.0,7.0,97,0.06,,,0.93,Wunderground v.1.15,2013-03-09 22:00:00,
2013-03-09 16:05:00,36.0,35.2,29.76,SSE,157,6.0,11.0,97,0.06,,,0.93,Wunderground v.1.15,2013-03-09 22:05:00,
2013-03-09 16:10:00,36.0,35.2,29.76,SSE,166,5.0,11.0,97,0.05,,,0.94,Wunderground v.1.15,2013-03-09 22:10:00,
2013-03-09 16:15:00,36.1,35.6,29.76,SSE,150,7.0,10.0,98,0.05,,,0.94,Wunderground v.1.15,2013-03-09 22:15:00,
2013-03-09 16:20:00,36.0,35.2,29.76,SSE,163,5.0,10.0,97,0.05,,,0.94,Wunderground v.1.15,2013-03-09 22:20:00,
2013-03-09 16:25:00,36.1,35.6,29.76,SSE,167,7.0,10.0,98,0.04,,,0.94,Wunderground v.1.15,2013-03-09 22:25:00,
2013-03-09 16:30:00,36.1,35.3,29.77,SSE,162,8.0,11.0,97,0.00,,,0.95,Wunderground v.1.15,2013-03-09 22:30:00,
2013-03-09 16:35:00,36.2,35.4,29.77,SSE,160,6.0,10.0,97,0.00,,,0.95,Wunderground v.1.15,2013-03-09 22:35:00,
2013-03-09 16:40:00,36.2,35.4,29.76,SSE,162,5.0,10.0,97,0.06,,,0.96,Wunderground v.1.15,2013-03-09 22:40:00,
2013-03-09 16:45:00,36.1,35.3,29.77,SSE,152,6.0,7.0,97,0.09,,,0.97,Wunderground v.1.15,2013-03-09 22:45:00,
2013-03-09 16:50:00,35.9,35.1,29.76,SSE,151,7.0,9.0,97,0.15,,,0.99,Wunderground v.1.15,2013-03-09 22:50:00,
2013-03-09 16:55:00,36.0,35.5,29.76,SSE,153,6.0,6.0,98,0.16,,,1.00,Wunderground v.1.15,2013-03-09 22:55:00,
2013-03-09 17:00:00,36.0,35.5,29.75,SSE,148,5.0,6.0,98,0.09,,,1.00,Wunderground v.1.15,2013-03-09 23:00:00,
2013-03-09 17:05:00,36.1,35.3,29.75,SE,140,5.0,8.0,97,0.06,,,1.01,Wunderground v.1.15,2013-03-09 23:05:00,
2013-03-09 17:10:00,36.3,35.8,29.74,SE,134,2.0,6.0,98,0.12,,,1.02,Wunderground v.1.15,2013-03-09 23:10:00,
2013-03-09 17:15:00,36.4,35.9,29.74,SSE,148,5.0,7.0,98,0.11,,,1.03,Wunderground v.1.15,2013-03-09 23:15:00,
2013-03-09 17:20:00,36.5,36.0,29.74,SE,144,4.0,8.0,98,0.14,,,1.04,Wunderground v.1.15,2013-03-09 23:20:00,
2013-03-09 17:26:00,36.6,36.1,29.74,SE,142,9.0,9.0,98,0.15,,,1.06,Wunderground v.1.15,2013-03-09 23:26:00,
2013-03-09 17:31:00,36.8,36.3,29.74,SE,140,11.0,11.0,98,0.10,,,1.06,Wunderground v.1.15,2013-03-09 23:31:00,
2013-03-09 17:36:00,36.5,36.0,29.75,SSE,147,7.0,9.0,98,0.08,,,1.07,Wunderground v.1.15,2013-03-09 23:36:00,
2013-03-09 17:41:00,36.4,35.9,29.75,SSE,152,8.0,13.0,98,0.12,,,1.08,Wunderground v.1.15,2013-03-09 23:41:00,
2013-03-09 17:46:00,36.6,36.1,29.75,SSE,157,7.0,12.0,98,0.07,,,1.08,Wunderground v.1.15,2013-03-09 23:46:00,
2013-03-09 17:51:00,36.7,36.2,29.75,SSE,158,5.0,13.0,98,0.04,,,1.08,Wunderground v.1.15,2013-03-09 23:51:00,
2013-03-09 17:56:00,36.5,36.0,29.76,SSE,166,6.0,7.0,98,0.00,,,1.08,Wunderground v.1.15,2013-03-09 23:56:00,
2013-03-09 18:03:00,36.5,36.0,29.76,South,173,7.0,7.0,98,0.00,,,1.08,Wunderground v.1.15,2013-03-10 00:03:00,
2013-03-09 18:08:00,36.5,36.0,29.77,South,170,8.0,9.0,98,0.00,,,1.08,Wunderground v.1.15,2013-03-10 00:08:00,
2013-03-09 18:13:00,36.5,36.0,29.77,SSE,163,8.0,8.0,98,0.00,,,1.08,Wunderground v.1.15,2013-03-10 00:13:00,
2013-03-09 18:18:00,36.6,36.1,29.77,SSE,164,6.0,8.0,98,0.00,,,1.08,Wunderground v.1.15,2013-03-10 00:18:00,
2013-03-09 18:23:00,36.4,35.9,29.77,SSE,161,5.0,5.0,98,0.00,,,1.09,Wunderground v.1.15,2013-03-10 00:23:00,
2013-03-09 18:29:00,36.1,35.3,29.77,SSE,161,2.0,5.0,97,0.00,,,1.09,Wunderground v.1.15,2013-03-10 00:29:00,
2013-03-09 18:34:00,36.0,35.2,29.77,SSE,161,2.0,4.0,97,0.00,,,1.09,Wunderground v.1.15,2013-03-10 00:34:00,
2013-03-09 18:39:00,36.0,35.5,29.77,SSE,161,4.0,5.0,98,0.00,,,1.09,Wunderground v.1.15,2013-03-10 00:39:00,
2013-03-09 18:44:00,36.1,35.6,29.77,SSE,161,2.0,5.0,98,0.00,,,1.09,Wunderground v.1.15,2013-03-10 00:44:00,
2013-03-09 18:49:00,36.2,35.7,29.77,SSE,161,1.0,5.0,98,0.00,,,1.10,Wunderground v.1.15,2013-03-10 00:49:00,
2013-03-09 18:54:00,36.2,35.7,29.77,SSE,161,0.0,2.0,98,0.00,,,1.10,Wunderground v.1.15,2013-03-10 00:54:00,
2013-03-09 18:59:00,36.3,35.8,29.77,SSE,161,0.0,2.0,98,0.05,,,1.11,Wunderground v.1.15,2013-03-10 00:59:00,
2013-03-09 19:04:00,36.5,36.0,29.77,SSE,161,0.0,0.0,98,0.05,,,1.11,Wunderground v.1.15,2013-03-10 01:04:00,
2013-03-09 19:09:00,36.6,36.1,29.77,SSE,161,0.0,0.0,98,0.05,,,1.11,Wunderground v.1.15,2013-03-10 01:09:00,
2013-03-09 19:14:00,36.6,36.1,29.76,SSE,161,0.0,0.0,98,0.04,,,1.12,Wunderground v.1.15,2013-03-10 01:14:00,
2013-03-09 19:19:00,36.6,36.1,29.76,SSE,161,0.0,0.0,98,0.04,,,1.12,Wunderground v.1.15,2013-03-10 01:19:00,
2013-03-09 19:24:00,36.6,36.1,29.76,SSE,161,0.0,0.0,98,0.04,,,1.12,Wunderground v.1.15,2013-03-10 01:24:00,
2013-03-09 19:29:00,36.6,36.1,29.76,SSE,161,0.0,0.0,98,0.00,,,1.12,Wunderground v.1.15,2013-03-10 01:29:00,
2013-03-09 19:34:00,36.6,36.1,29.76,SSE,161,0.0,0.0,98,0.00,,,1.12,Wunderground v.1.15,2013-03-10 01:34:00,
2013-03-09 19:39:00,36.6,36.1,29.76,SSE,161,1.0,2.0,98,0.00,,,1.12,Wunderground v.1.15,2013-03-10 01:39:00,
2013-03-09 19:44:00,36.7,36.2,29.76,SSE,161,0.0,0.0,98,0.00,,,1.12,Wunderground v.1.15,2013-03-10 01:44:00,
2013-03-09 19:49:00,36.7,36.2,29.76,SSE,161,0.0,0.0,98,0.00,,,1.12,Wunderground v.1.15,2013-03-10 01:49:00,
2013-03-09 19:54:00,36.8,36.3,29.76,SSE,161,0.0,0.0,98,0.00,,,1.12,Wunderground v.1.15,2013-03-10 01:54:00,
2013-03-09 19:59:00,36.7,36.2,29.76,SSE,161,0.0,0.0,98,0.00,,,1.12,Wunderground v.1.15,2013-03-10 01:59:00,
2013-03-09 20:04:00,36.6,36.1,29.75,SSE,161,0.0,0.0,98,0.00,,,1.12,Wunderground v.1.15,2013-03-10 02:04:00,
2013-03-09 20:09:00,36.5,36.0,29.75,SSE,161,0.0,0.0,98,0.00,,,1.13,Wunderground v.1.15,2013-03-10 02:09:00,
2013-03-09 20:15:00,36.5,36.0,29.75,SSE,160,4.0,4.0,98,0.13,,,1.14,Wunderground v.1.15,2013-03-10 02:15:00,
2013-03-09 20:20:00,36.6,36.1,29.75,SE,146,6.0,6.0,98,0.06,,,1.15,Wunderground v.1.15,2013-03-10 02:20:00,
2013-03-09 20:25:00,37.0,36.5,29.75,SE,141,7.0,13.0,98,0.19,,,1.16,Wunderground v.1.15,2013-03-10 02:25:00,
2013-03-09 20:30:00,37.7,37.2,29.75,SE,124,4.0,13.0,98,0.09,,,1.16,Wunderground v.1.15,2013-03-10 02:30:00,
2013-03-09 20:35:00,37.7,37.2,29.75,SE,144,5.0,9.0,98,0.07,,,1.17,Wunderground v.1.15,2013-03-10 02:35:00,
2013-03-09 20:40:00,37.6,37.1,29.74,SE,140,5.0,9.0,98,0.09,,,1.18,Wunderground v.1.15,2013-03-10 02:40:00,
2013-03-09 20:45:00,37.6,37.1,29.74,SE,138,6.0,6.0,98,0.09,,,1.18,Wunderground v.1.15,2013-03-10 02:45:00,
2013-03-09 20:50:00,37.7,37.2,29.74,SE,138,2.0,6.0,98,0.05,,,1.18,Wunderground v.1.15,2013-03-10 02:50:00,
2013-03-09 20:55:00,37.6,37.1,29.74,SE,131,1.0,6.0,98,0.04,,,1.19,Wunderground v.1.15,2013-03-10 02:55:00,
2013-03-09 21:00:00,37.7,37.2,29.74,SE,136,1.0,3.0,98,0.04,,,1.19,Wunderground v.1.15,2013-03-10 03:00:00,
2013-03-09 21:05:00,37.9,37.4,29.73,SE,136,2.0,5.0,98,0.08,,,1.20,Wunderground v.1.15,2013-03-10 03:05:00,
2013-03-09 21:10:00,38.0,37.5,29.72,ESE,114,1.0,6.0,98,0.06,,,1.20,Wunderground v.1.15,2013-03-10 03:10:00,
2013-03-09 21:15:00,38.1,37.6,29.71,SE,128,5.0,6.0,98,0.06,,,1.21,Wunderground v.1.15,2013-03-10 03:15:00,
2013-03-09 21:20:00,38.3,37.8,29.70,East,89,2.0,9.0,98,0.12,,,1.22,Wunderground v.1.15,2013-03-10 03:20:00,
2013-03-09 21:25:00,38.5,38.0,29.69,SE,134,2.0,7.0,98,0.06,,,1.22,Wunderground v.1.15,2013-03-10 03:25:00,
2013-03-09 21:30:00,38.6,38.1,29.69,SSE,148,4.0,11.0,98,0.04,,,1.22,Wunderground v.1.15,2013-03-10 03:30:00,
2013-03-09 21:35:00,39.0,38.5,29.68,SE,146,11.0,12.0,98,0.00,,,1.22,Wunderground v.1.15,2013-03-10 03:35:00,
2013-03-09 21:40:00,39.3,38.8,29.68,SSE,156,9.0,13.0,98,0.00,,,1.22,Wunderground v.1.15,2013-03-10 03:40:00,
2013-03-09 21:45:00,39.5,39.0,29.68,ESE,119,4.0,9.0,98,0.00,,,1.22,Wunderground v.1.15,2013-03-10 03:45:00,
2013-03-09 21:50:00,39.2,38.7,29.69,SE,138,1.0,9.0,98,0.00,,,1.22,Wunderground v.1.15,2013-03-10 03:50:00,
2013-03-09 21:55:00,39.2,38.7,29.70,SE,138,9.0,9.0,98,0.00,,,1.22,Wunderground v.1.15,2013-03-10 03:55:00,
2013-03-09 22:00:00,39.1,38.6,29.71,SE,142,8.0,9.0,98,0.00,,,1.22,Wunderground v.1.15,2013-03-10 04:00:00,
2013-03-09 22:05:00,38.8,38.3,29.71,SE,145,5.0,8.0,98,0.00,,,1.22,Wunderground v.1.15,2013-03-10 04:05:00,
2013-03-09 22:10:00,38.6,38.1,29.71,SE,139,2.0,6.0,98,0.00,,,1.22,Wunderground v.1.15,2013-03-10 04:10:00,
2013-03-09 22:15:00,38.4,37.9,29.70,SE,140,1.0,5.0,98,0.00,,,1.22,Wunderground v.1.15,2013-03-10 04:15:00,
2013-03-09 22:22:00,38.4,37.9,29.71,SE,143,0.0,2.0,98,0.00,,,1.22,Wunderground v.1.15,2013-03-10 04:22:00,
2013-03-09 22:27:00,38.5,38.0,29.71,SE,143,2.0,5.0,98,0.00,,,1.22,Wunderground v.1.15,2013-03-10 04:27:00,
2013-03-09 22:32:00,38.6,38.1,29.73,SE,144,2.0,2.0,98,0.00,,,1.22,Wunderground v.1.15,2013-03-10 04:32:00,
2013-03-09 22:38:00,38.7,38.2,29.73,SE,144,2.0,7.0,98,0.00,,,1.22,Wunderground v.1.15,2013-03-10 04:38:00,
2013-03-09 22:43:00,38.6,38.1,29.73,SE,144,2.0,4.0,98,0.00,,,1.22,Wunderground v.1.15,2013-03-10 04:43:00,
2013-03-09 22:48:00,38.5,38.0,29.74,SSE,148,4.0,5.0,98,0.00,,,1.22,Wunderground v.1.15,2013-03-10 04:48:00,
2013-03-09 22:53:00,38.3,37.8,29.74,SSE,148,0.0,2.0,98,0.00,,,1.22,Wunderground v.1.15,2013-03-10 04:53:00,
2013-03-09 22:58:00,38.2,37.7,29.73,SSE,148,0.0,2.0,98,0.00,,,1.22,Wunderground v.1.15,2013-03-10 04:58:00,
2013-03-09 23:00:00,38.2,37.7,29.73,SSE,148,0.0,0.0,98,0.00,,,1.22,Wunderground v.1.15,2013-03-10 05:00:00,
2013-03-09 23:01:00,38.2,37.7,29.73,SSE,148,0.0,0.0,98,0.00,,,1.22,Wunderground v.1.15,2013-03-10 05:01:00,
2013-03-09 23:03:00,38.2,37.7,29.73,SSE,148,0.0,0.0,98,0.00,,,1.22,Wunderground v.1.15,2013-03-10 05:03:00,
2013-03-09 23:08:00,38.2,37.7,29.73,SSE,148,0.0,0.0,98,0.00,,,1.22,Wunderground v.1.15,2013-03-10 05:08:00,
2013-03-09 23:13:00,38.3,37.8,29.73,SSE,148,0.0,0.0,98,0.00,,,1.22,Wunderground v.1.15,2013-03-10 05:13:00,
2013-03-09 23:18:00,38.4,37.9,29.72,SSE,148,0.0,2.0,98,0.00,,,1.22,Wunderground v.1.15,2013-03-10 05:18:00,
2013-03-09 23:23:00,38.7,38.2,29.72,SSE,148,4.0,5.0,98,0.00,,,1.22,Wunderground v.1.15,2013-03-10 05:23:00,
2013-03-09 23:28:00,39.1,38.6,29.71,SSE,147,1.0,5.0,98,0.00,,,1.22,Wunderground v.1.15,2013-03-10 05:28:00,
2013-03-09 23:33:00,39.2,38.7,29.70,SSE,147,2.0,4.0,98,0.00,,,1.22,Wunderground v.1.15,2013-03-10 05:33:00,
2013-03-09 23:38:00,38.6,38.1,29.70,SSE,147,2.0,4.0,98,0.00,,,1.22,Wunderground v.1.15,2013-03-10 05:38:00,
2013-03-09 23:43:00,38.0,37.2,29.70,SSE,147,5.0,5.0,97,0.00,,,1.22,Wunderground v.1.15,2013-03-10 05:43:00,
2013-03-09 23:49:00,37.6,36.8,29.70,SSE,147,2.0,6.0,97,0.00,,,1.22,Wunderground v.1.15,2013-03-10 05:49:00,
2013-03-09 23:54:00,37.1,36.3,29.69,SSE,147,5.0,5.0,97,0.00,,,1.22,Wunderground v.1.15,2013-03-10 05:54:00,